createdAt,value
2023-04-20T00:01:13.873Z,93923.69
2023-04-20T00:03:41.318Z,93917.13
2023-04-20T00:06:08.155Z,93914.56
2023-04-20T00:08:34.867Z,93915.97
2023-04-20T00:11:01.488Z,93917.94
2023-04-20T00:13:28.187Z,93919.91
2023-04-20T00:15:54.829Z,93901.69
2023-04-20T00:18:21.655Z,93904.06
2023-04-20T00:20:48.394Z,93902.31
2023-04-20T00:23:15.316Z,93897.34
2023-04-20T00:25:42.054Z,93902.47
2023-04-20T00:28:08.681Z,93902.25
2023-04-20T00:30:35.456Z,93900.88
2023-04-20T00:33:02.507Z,93896.97
2023-04-20T00:35:29.282Z,93895.63
2023-04-20T00:37:55.989Z,93895.69
2023-04-20T00:40:22.780Z,93891.31
2023-04-20T00:42:49.659Z,93899.06
2023-04-20T00:45:16.422Z,93884.78
2023-04-20T00:47:43.143Z,93878.56
2023-04-20T00:50:11.623Z,93882.16
2023-04-20T00:52:38.351Z,93878.22
2023-04-20T00:55:06.299Z,93875.78
2023-04-20T00:57:32.953Z,93873.41
2023-04-20T00:59:59.721Z,93863.13
2023-04-20T01:02:27.753Z,93860.91
2023-04-20T01:04:54.550Z,93859.56
2023-04-20T01:07:21.510Z,93857.91
2023-04-20T01:09:48.202Z,93856.31
2023-04-20T01:12:14.841Z,93860.72
2023-04-20T01:14:41.475Z,93854.97
2023-04-20T01:17:08.506Z,93852.75
2023-04-20T01:19:35.362Z,93845.22
2023-04-20T01:22:02.102Z,93844.06
2023-04-20T01:24:28.897Z,93846.44
2023-04-20T01:26:55.483Z,93845.84
2023-04-20T01:29:22.285Z,93844.81
2023-04-20T01:31:49.084Z,93840.66
2023-04-20T01:34:17.738Z,93837.25
2023-04-20T01:36:45.355Z,93837.28
2023-04-20T01:39:12.491Z,93829.06
2023-04-20T01:41:39.853Z,93831.34
2023-04-20T01:44:06.522Z,93824.47
2023-04-20T01:46:33.351Z,93823.50
2023-04-20T01:49:00.081Z,93823.13
2023-04-20T01:51:27.910Z,93828.88
2023-04-20T01:53:54.554Z,93820.91
2023-04-20T01:56:21.287Z,93818.50
2023-04-20T01:58:47.903Z,93826.19
2023-04-20T02:01:14.641Z,93820.44
2023-04-20T02:03:41.595Z,93824.63
2023-04-20T02:06:08.754Z,93823.25
2023-04-20T02:08:35.628Z,93820.53
2023-04-20T02:11:02.393Z,93812.81
2023-04-20T02:13:29.062Z,93814.19
2023-04-20T02:15:55.774Z,93814.03
2023-04-20T02:18:22.684Z,93806.88
2023-04-20T02:20:49.332Z,93810.88
2023-04-20T02:23:16.027Z,93809.03
2023-04-20T02:25:42.785Z,93811.63
2023-04-20T02:28:09.444Z,93807.44
2023-04-20T02:30:36.203Z,93797.72
2023-04-20T02:33:03.086Z,93811.81
2023-04-20T02:35:29.758Z,93804.09
2023-04-20T02:37:56.435Z,93806.47
2023-04-20T02:40:23.308Z,93792.63
2023-04-20T02:42:49.994Z,93793.00
2023-04-20T02:45:16.634Z,93788.09
2023-04-20T02:47:43.469Z,93786.09
2023-04-20T02:50:11.259Z,93781.34
2023-04-20T02:52:37.992Z,93784.31
2023-04-20T02:55:05.048Z,93778.78
2023-04-20T02:57:31.762Z,93778.00
2023-04-20T02:59:58.396Z,93787.44
2023-04-20T03:02:25.234Z,93774.72
2023-04-20T03:04:52.197Z,93777.50
2023-04-20T03:07:18.800Z,93774.47
2023-04-20T03:09:45.475Z,93762.09
2023-04-20T03:12:12.102Z,93757.75
2023-04-20T03:14:38.859Z,93766.84
2023-04-20T03:17:05.460Z,93762.31
2023-04-20T03:19:32.130Z,93759.94
2023-04-20T03:21:58.710Z,93763.69
2023-04-20T03:24:25.366Z,93765.38
2023-04-20T03:26:52.082Z,93766.75
2023-04-20T03:29:19.151Z,93761.81
2023-04-20T03:31:46.656Z,93762.84
2023-04-20T03:34:13.397Z,93764.81
2023-04-20T03:36:40.223Z,93767.22
2023-04-20T03:39:07.173Z,93760.44
2023-04-20T03:41:33.929Z,93767.38
2023-04-20T03:44:00.910Z,93773.19
2023-04-20T03:46:27.826Z,93763.69
2023-04-20T03:48:54.649Z,93766.00
2023-04-20T03:51:21.296Z,93759.66
2023-04-20T03:53:48.157Z,93760.63
2023-04-20T03:56:15.324Z,93759.66
2023-04-20T03:58:42.030Z,93762.78
2023-04-20T04:01:11.112Z,93756.28
2023-04-20T04:03:37.936Z,93760.81
2023-04-20T04:06:05.191Z,93755.06
2023-04-20T04:08:32.482Z,93751.34
2023-04-20T04:11:00.610Z,93749.19
2023-04-20T04:13:27.889Z,93748.19
2023-04-20T04:15:54.678Z,93754.09
2023-04-20T04:18:21.822Z,93753.91
2023-04-20T04:20:48.646Z,93746.19
2023-04-20T04:23:15.485Z,93749.16
2023-04-20T04:25:42.534Z,93747.31
2023-04-20T04:28:09.216Z,93738.63
2023-04-20T04:30:35.872Z,93755.63
2023-04-20T04:33:04.966Z,93761.56
2023-04-20T04:35:33.505Z,93754.09
2023-04-20T04:38:01.061Z,93753.31
2023-04-20T04:40:27.908Z,93749.53
2023-04-20T04:42:55.613Z,93760.03
2023-04-20T04:45:25.376Z,93757.25
2023-04-20T04:47:54.051Z,93754.91
2023-04-20T04:50:22.310Z,93749.94
2023-04-20T04:52:49.134Z,93756.28
2023-04-20T04:55:16.693Z,93758.72
2023-04-20T04:57:43.605Z,93761.41
2023-04-20T05:00:12.491Z,93768.97
2023-04-20T05:02:39.869Z,93766.06
2023-04-20T05:05:10.015Z,93755.78
2023-04-20T05:07:38.524Z,93758.34
2023-04-20T05:10:06.331Z,93764.06
2023-04-20T05:12:33.331Z,93762.03
2023-04-20T05:14:59.976Z,93764.28
2023-04-20T05:17:26.912Z,93769.34
2023-04-20T05:19:53.878Z,93766.66
2023-04-20T05:22:20.829Z,93767.84
2023-04-20T05:24:47.613Z,93777.38
2023-04-20T05:27:14.462Z,93774.38
2023-04-20T05:29:41.220Z,93772.66
2023-04-20T05:32:08.275Z,93760.41
2023-04-20T05:34:35.148Z,93772.69
2023-04-20T05:37:04.250Z,93774.28
2023-04-20T05:39:31.013Z,93778.91
2023-04-20T05:41:58.158Z,93783.03
2023-04-20T05:44:24.939Z,93778.88
2023-04-20T05:46:51.660Z,93784.44
2023-04-20T05:49:18.649Z,93778.06
2023-04-20T05:51:45.627Z,93771.78
2023-04-20T05:54:12.898Z,93769.06
2023-04-20T05:56:39.602Z,93765.88
2023-04-20T05:59:06.581Z,93777.22
2023-04-20T06:01:33.209Z,93761.38
2023-04-20T06:04:00.427Z,93768.75
2023-04-20T06:06:27.961Z,93767.38
2023-04-20T06:08:55.255Z,93768.13
2023-04-20T06:11:21.993Z,93773.50
2023-04-20T06:13:48.800Z,93771.13
2023-04-20T06:16:15.621Z,93773.09
2023-04-20T06:18:42.359Z,93782.66
2023-04-20T06:21:12.340Z,93784.59
2023-04-20T06:23:39.226Z,93793.50
2023-04-20T06:26:08.942Z,93781.66
2023-04-20T06:28:36.645Z,93781.03
2023-04-20T06:31:06.860Z,93777.50
2023-04-20T06:33:33.758Z,93777.28
2023-04-20T06:36:00.537Z,93776.63
2023-04-20T06:38:27.404Z,93783.88
2023-04-20T06:40:54.150Z,93784.91
2023-04-20T06:43:21.037Z,93783.13
2023-04-20T06:45:47.723Z,93797.16
2023-04-20T06:48:30.017Z,93790.66
2023-04-20T06:50:58.616Z,93785.59
2023-04-20T06:53:25.395Z,93787.25
2023-04-20T06:55:55.215Z,93788.19
2023-04-20T06:58:21.816Z,93787.25
2023-04-20T07:00:48.620Z,93788.88
2023-04-20T07:03:15.499Z,93790.47
2023-04-20T07:05:42.376Z,93791.75
2023-04-20T07:08:09.712Z,93789.97
2023-04-20T07:10:36.746Z,93795.53
2023-04-20T07:13:03.450Z,93792.47
2023-04-20T07:15:30.671Z,93788.69
2023-04-20T07:17:57.560Z,93798.97
2023-04-20T07:20:24.312Z,93802.78
2023-04-20T07:22:51.108Z,93801.81
2023-04-20T07:25:17.989Z,93805.88
2023-04-20T07:27:44.761Z,93806.06
2023-04-20T07:30:12.212Z,93816.75
2023-04-20T07:32:39.877Z,93825.06
2023-04-20T07:35:07.249Z,93820.94
2023-04-20T07:37:34.605Z,93813.69
2023-04-20T07:40:01.649Z,93814.19
2023-04-20T07:42:29.923Z,93824.34
2023-04-20T07:44:56.800Z,93824.94
2023-04-20T07:47:23.557Z,93821.31
2023-04-20T07:49:50.397Z,93816.25
2023-04-20T07:52:18.367Z,93822.63
2023-04-20T07:54:45.794Z,93811.31
2023-04-20T07:57:12.547Z,93819.69
2023-04-20T07:59:40.877Z,93819.47
2023-04-20T08:02:08.247Z,93810.03
2023-04-20T08:04:38.008Z,93825.34
2023-04-20T08:07:05.000Z,93825.34
2023-04-20T08:09:31.727Z,93815.75
2023-04-20T08:11:58.631Z,93826.16
2023-04-20T08:14:25.467Z,93823.88
2023-04-20T08:16:52.161Z,93818.53
2023-04-20T08:19:19.114Z,93821.59
2023-04-20T08:21:45.869Z,93814.09
2023-04-20T08:24:13.551Z,93807.53
2023-04-20T08:26:40.858Z,93811.09
2023-04-20T08:29:07.701Z,93812.66
2023-04-20T08:31:34.502Z,93804.28
2023-04-20T08:34:01.696Z,93793.56
2023-04-20T08:36:28.357Z,93801.50
2023-04-20T08:39:07.690Z,93798.22
2023-04-20T08:41:34.379Z,93812.06
2023-04-20T08:44:01.229Z,93807.03
2023-04-20T08:46:28.261Z,93802.84
2023-04-20T08:48:55.999Z,93799.22
2023-04-20T08:51:23.291Z,93813.72
2023-04-20T08:53:50.219Z,93824.59
2023-04-20T08:56:16.977Z,93813.97
2023-04-20T08:58:43.846Z,93814.09
2023-04-20T09:01:12.754Z,93827.50
2023-04-20T09:03:45.089Z,93826.91
2023-04-20T09:06:17.016Z,93824.09
2023-04-20T09:08:45.038Z,93820.81
2023-04-20T09:11:41.273Z,93826.78
2023-04-20T09:14:12.929Z,93812.56
2023-04-20T09:16:51.380Z,93817.59
2023-04-20T09:19:27.145Z,93822.72
2023-04-20T09:21:55.816Z,93812.13
2023-04-20T09:24:24.775Z,93823.88
2023-04-20T09:26:51.554Z,93827.47
2023-04-20T09:29:20.779Z,93822.38
2023-04-20T09:31:48.734Z,93820.25
2023-04-20T09:34:15.933Z,93823.50
2023-04-20T09:36:47.696Z,93823.50
2023-04-20T09:39:16.945Z,93823.25
2023-04-20T09:41:44.156Z,93814.56
2023-04-20T09:44:12.263Z,93820.44
2023-04-20T09:46:40.758Z,93819.97
2023-04-20T09:49:09.452Z,93810.41
2023-04-20T09:51:46.876Z,93831.09
2023-04-20T09:54:14.355Z,93825.53
2023-04-20T09:56:41.470Z,93826.00
2023-04-20T09:59:08.487Z,93829.78
2023-04-20T10:01:37.606Z,93814.88
2023-04-20T10:04:08.670Z,93831.84
2023-04-20T10:06:36.668Z,93829.97
2023-04-20T10:09:05.587Z,93834.84
2023-04-20T10:11:48.876Z,93830.66
2023-04-20T10:14:23.524Z,93823.03
2023-04-20T10:17:03.652Z,93826.31
2023-04-20T10:19:40.987Z,93827.41
2023-04-20T10:22:09.274Z,93831.16
2023-04-20T10:24:38.499Z,93831.75
2023-04-20T10:27:19.436Z,93831.34
2023-04-20T10:29:46.622Z,93822.88
2023-04-20T10:32:29.579Z,93822.19
2023-04-20T10:35:08.776Z,93825.25
2023-04-20T10:37:36.267Z,93817.72
2023-04-20T10:40:07.535Z,93821.84
2023-04-20T10:42:44.854Z,93815.28
2023-04-20T10:45:12.534Z,93815.06
2023-04-20T10:47:41.137Z,93810.63
2023-04-20T10:50:12.523Z,93810.31
2023-04-20T10:52:41.125Z,93801.78
2023-04-20T10:55:24.705Z,93809.16
2023-04-20T10:57:51.978Z,93807.19
2023-04-20T11:00:21.098Z,93808.44
2023-04-20T11:02:52.653Z,93808.63
2023-04-20T11:05:20.575Z,93800.81
2023-04-20T11:07:57.176Z,93807.41
2023-04-20T11:10:44.089Z,93798.31
2023-04-20T11:13:25.561Z,93798.31
2023-04-20T11:15:52.373Z,93806.94
2023-04-20T11:18:19.282Z,93803.38
2023-04-20T11:20:53.575Z,93810.00
2023-04-20T11:23:21.415Z,93806.28
2023-04-20T11:25:56.335Z,93806.91
2023-04-20T11:28:24.069Z,93806.06
2023-04-20T11:30:51.028Z,93795.38
2023-04-20T11:33:30.491Z,93809.50
2023-04-20T11:35:58.370Z,93815.59
2023-04-20T11:38:32.554Z,93804.69
2023-04-20T11:41:04.518Z,93804.94
2023-04-20T11:43:32.552Z,93806.72
2023-04-20T11:46:01.172Z,93811.53
2023-04-20T11:48:31.282Z,93802.78
2023-04-20T11:50:58.877Z,93810.25
2023-04-20T11:53:25.937Z,93797.47
2023-04-20T11:55:52.691Z,93809.06
2023-04-20T11:58:19.447Z,93805.69
2023-04-20T12:00:46.312Z,93803.22
2023-04-20T12:03:13.278Z,93808.97
2023-04-20T12:05:40.390Z,93797.47
2023-04-20T12:08:08.348Z,93808.09
2023-04-20T12:10:35.364Z,93802.69
2023-04-20T12:13:02.131Z,93809.69
2023-04-20T12:15:28.943Z,93798.66
2023-04-20T12:17:55.851Z,93813.09
2023-04-20T12:20:22.716Z,93803.94
2023-04-20T12:22:49.658Z,93796.75
2023-04-20T12:25:16.508Z,93806.06
2023-04-20T12:27:43.195Z,93798.06
2023-04-20T12:30:10.404Z,93794.56
2023-04-20T12:32:37.168Z,93794.66
2023-04-20T12:35:04.128Z,93783.13
2023-04-20T12:37:31.101Z,93789.22
2023-04-20T12:39:57.963Z,93802.72
2023-04-20T12:42:24.816Z,93801.69
2023-04-20T12:44:54.880Z,93801.63
2023-04-20T12:47:21.641Z,93799.88
2023-04-20T12:49:48.382Z,93793.63
2023-04-20T12:52:15.189Z,93796.19
2023-04-20T12:54:44.011Z,93793.31
2023-04-20T12:57:11.048Z,93800.84
2023-04-20T12:59:37.764Z,93797.16
2023-04-20T13:02:04.592Z,93799.88
2023-04-20T13:04:31.479Z,93793.94
2023-04-20T13:06:58.443Z,93789.13
2023-04-20T13:09:27.223Z,93789.34
2023-04-20T13:11:54.045Z,93785.81
2023-04-20T13:14:21.205Z,93788.09
2023-04-20T13:16:48.384Z,93779.81
2023-04-20T13:19:15.704Z,93792.72
2023-04-20T13:21:42.597Z,93781.06
2023-04-20T13:24:09.595Z,93787.47
2023-04-20T13:26:36.830Z,93783.81
2023-04-20T13:29:03.689Z,93786.59
2023-04-20T13:31:31.397Z,93793.81
2023-04-20T13:33:58.261Z,93791.88
2023-04-20T13:36:25.410Z,93797.94
2023-04-20T13:38:53.592Z,93802.88
2023-04-20T13:41:20.538Z,93805.25
2023-04-20T13:43:47.227Z,93799.00
2023-04-20T13:46:15.493Z,93799.81
2023-04-20T13:48:42.684Z,93798.53
2023-04-20T13:51:09.516Z,93798.53
2023-04-20T13:53:36.464Z,93804.50
2023-04-20T13:56:04.075Z,93800.34
2023-04-20T13:58:30.906Z,93798.78
2023-04-20T14:00:57.635Z,93801.63
2023-04-20T14:03:26.331Z,93801.28
2023-04-20T14:05:53.372Z,93804.00
2023-04-20T14:08:20.794Z,93798.91
2023-04-20T14:10:47.625Z,93790.06
2023-04-20T14:13:14.357Z,93797.44
2023-04-20T14:15:41.879Z,93794.78
2023-04-20T14:18:08.688Z,93790.47
2023-04-20T14:20:35.714Z,93789.69
2023-04-20T14:23:02.490Z,93787.50
2023-04-20T14:25:29.399Z,93787.50
2023-04-20T14:27:56.178Z,93793.06
2023-04-20T14:30:23.052Z,93790.59
2023-04-20T14:33:00.162Z,93790.31
2023-04-20T14:35:28.539Z,93796.38
2023-04-20T14:37:55.241Z,93781.28
2023-04-20T14:40:22.222Z,93788.94
2023-04-20T14:42:48.982Z,93794.31
2023-04-20T14:45:15.977Z,93784.78
2023-04-20T14:47:42.807Z,93788.06
2023-04-20T14:50:10.868Z,93781.78
2023-04-20T14:52:37.650Z,93786.66
2023-04-20T14:55:04.748Z,93784.28
2023-04-20T14:57:31.683Z,93782.88
2023-04-20T14:59:58.448Z,93784.22
2023-04-20T15:02:25.673Z,93781.56
2023-04-20T15:04:52.822Z,93776.81
2023-04-20T15:07:19.674Z,93763.97
2023-04-20T15:09:46.579Z,93778.56
2023-04-20T15:12:13.284Z,93775.25
2023-04-20T15:14:40.056Z,93773.00
2023-04-20T15:17:06.985Z,93777.41
2023-04-20T15:19:33.678Z,93780.81
2023-04-20T15:22:01.145Z,93780.31
2023-04-20T15:24:27.896Z,93769.88
2023-04-20T15:26:54.668Z,93780.25
2023-04-20T15:29:21.488Z,93770.63
2023-04-20T15:31:48.282Z,93781.13
2023-04-20T15:34:17.334Z,93776.38
2023-04-20T15:36:44.815Z,93776.34
2023-04-20T15:39:11.613Z,93776.94
2023-04-20T15:41:38.396Z,93775.16
2023-04-20T15:44:05.744Z,93774.75
2023-04-20T15:46:32.683Z,93777.66
2023-04-20T15:48:59.728Z,93768.84
2023-04-20T15:51:28.157Z,93782.97
2023-04-20T15:53:55.093Z,93782.41
2023-04-20T15:56:24.806Z,93787.94
2023-04-20T15:58:52.026Z,93796.31
2023-04-20T16:01:19.935Z,93791.88
2023-04-20T16:03:47.826Z,93780.28
2023-04-20T16:06:14.939Z,93778.97
2023-04-20T16:08:41.773Z,93779.75
2023-04-20T16:11:09.070Z,93779.09
2023-04-20T16:13:36.589Z,93783.84
2023-04-20T16:16:03.394Z,93772.44
2023-04-20T16:18:30.396Z,93767.53
2023-04-20T16:20:57.004Z,93773.53
2023-04-20T16:23:24.064Z,93766.88
2023-04-20T16:25:51.078Z,93760.09
2023-04-20T16:28:17.852Z,93760.97
2023-04-20T16:30:44.682Z,93766.53
2023-04-20T16:33:12.055Z,93764.34
2023-04-20T16:35:38.828Z,93772.13
2023-04-20T16:38:05.898Z,93767.94
2023-04-20T16:40:33.502Z,93766.28
2023-04-20T16:43:02.403Z,93767.53
2023-04-20T16:45:29.247Z,93757.41
2023-04-20T16:47:57.978Z,93770.06
2023-04-20T16:50:25.080Z,93765.59
2023-04-20T16:52:52.023Z,93763.75
2023-04-20T16:55:18.854Z,93769.91
2023-04-20T16:57:45.781Z,93777.84
2023-04-20T17:00:14.373Z,93768.84
2023-04-20T17:02:41.217Z,93768.47
2023-04-20T17:05:08.314Z,93761.16
2023-04-20T17:07:36.514Z,93767.72
2023-04-20T17:10:03.489Z,93764.88
2023-04-20T17:12:30.385Z,93770.19
2023-04-20T17:14:57.154Z,93774.84
2023-04-20T17:17:24.096Z,93779.47
2023-04-20T17:19:50.890Z,93767.41
2023-04-20T17:22:17.679Z,93782.28
2023-04-20T17:24:44.447Z,93779.16
2023-04-20T17:27:11.180Z,93779.25
2023-04-20T17:29:38.720Z,93786.25
2023-04-20T17:32:06.117Z,93780.16
2023-04-20T17:34:33.203Z,93789.41
2023-04-20T17:37:00.120Z,93790.44
2023-04-20T17:39:27.047Z,93784.66
2023-04-20T17:41:53.830Z,93789.53
2023-04-20T17:44:20.956Z,93791.19
2023-04-20T17:46:50.641Z,93794.56
2023-04-20T17:49:17.436Z,93803.41
2023-04-20T17:51:44.170Z,93807.94
2023-04-20T17:54:11.470Z,93800.91
2023-04-20T17:56:38.136Z,93808.91
2023-04-20T17:59:05.503Z,93808.13
2023-04-20T18:01:34.846Z,93810.16
2023-04-20T18:04:02.869Z,93807.66
2023-04-20T18:06:30.207Z,93807.31
2023-04-20T18:08:58.231Z,93819.81
2023-04-20T18:11:25.045Z,93820.75
2023-04-20T18:13:51.892Z,93822.31
2023-04-20T18:16:18.909Z,93825.72
2023-04-20T18:18:45.910Z,93808.88
2023-04-20T18:21:14.355Z,93832.81
2023-04-20T18:23:41.204Z,93820.50
2023-04-20T18:26:10.330Z,93831.34
2023-04-20T18:28:37.171Z,93837.75
2023-04-20T18:31:03.799Z,93843.16
2023-04-20T18:33:30.442Z,93834.94
2023-04-20T18:35:57.165Z,93835.03
2023-04-20T18:38:23.866Z,93832.28
2023-04-20T18:40:50.563Z,93840.78
2023-04-20T18:43:17.205Z,93842.56
2023-04-20T18:45:44.065Z,93843.16
2023-04-20T18:48:11.109Z,93842.06
2023-04-20T18:50:37.894Z,93842.56
2023-04-20T18:53:05.322Z,93847.41
2023-04-20T18:55:32.274Z,93848.41
2023-04-20T18:57:59.032Z,93857.97
2023-04-20T19:00:26.032Z,93856.09
2023-04-20T19:02:53.032Z,93849.47
2023-04-20T19:05:19.896Z,93852.06
2023-04-20T19:07:47.123Z,93846.09
2023-04-20T19:10:13.896Z,93844.25
2023-04-20T19:12:40.594Z,93844.56
2023-04-20T19:15:09.085Z,93846.03
2023-04-20T19:17:36.330Z,93850.94
2023-04-20T19:20:04.210Z,93842.88
2023-04-20T19:22:30.952Z,93851.34
2023-04-20T19:24:57.759Z,93845.59
2023-04-20T19:27:24.466Z,93848.19
2023-04-20T19:29:51.873Z,93851.34
2023-04-20T19:32:18.836Z,93835.31
2023-04-20T19:34:45.703Z,93849.31
2023-04-20T19:37:12.432Z,93847.22
2023-04-20T19:39:39.197Z,93853.88
2023-04-20T19:42:06.278Z,93849.91
2023-04-20T19:44:33.855Z,93856.75
2023-04-20T19:47:00.898Z,93848.84
2023-04-20T19:49:27.705Z,93847.41
2023-04-20T19:51:55.112Z,93860.00
2023-04-20T19:54:22.446Z,93847.63
2023-04-20T19:56:49.175Z,93859.28
2023-04-20T19:59:16.022Z,93852.63
2023-04-20T20:01:42.799Z,93854.84
2023-04-20T20:04:09.682Z,93847.50
2023-04-20T20:06:36.752Z,93843.47
2023-04-20T20:09:06.025Z,93845.19
2023-04-20T20:11:33.336Z,93850.75
2023-04-20T20:14:00.230Z,93850.09
2023-04-20T20:16:29.325Z,93849.38
2023-04-20T20:18:56.111Z,93860.91
2023-04-20T20:21:22.785Z,93864.06
2023-04-20T20:23:49.409Z,93861.47
2023-04-20T20:26:16.107Z,93867.38
2023-04-20T20:28:42.710Z,93867.88
2023-04-20T20:31:09.800Z,93865.66
2023-04-20T20:33:37.646Z,93868.81
2023-04-20T20:36:04.517Z,93866.81
2023-04-20T20:38:31.175Z,93875.56
2023-04-20T20:40:58.797Z,93872.41
2023-04-20T20:43:25.616Z,93873.84
2023-04-20T20:45:52.578Z,93876.59
2023-04-20T20:48:19.202Z,93879.19
2023-04-20T20:50:45.822Z,93859.59
2023-04-20T20:53:12.663Z,93872.25
2023-04-20T20:55:39.285Z,93874.22
2023-04-20T20:58:06.023Z,93872.25
2023-04-20T21:00:33.465Z,93875.47
2023-04-20T21:03:00.631Z,93880.16
2023-04-20T21:05:27.439Z,93880.16
2023-04-20T21:07:54.133Z,93881.56
2023-04-20T21:10:20.832Z,93875.41
2023-04-20T21:12:47.427Z,93876.81
2023-04-20T21:15:14.099Z,93872.31
2023-04-20T21:17:40.951Z,93883.34
2023-04-20T21:20:09.247Z,93878.88
2023-04-20T21:22:42.381Z,93881.28
2023-04-20T21:25:09.185Z,93885.47
2023-04-20T21:27:35.969Z,93866.84
2023-04-20T21:30:02.721Z,93865.25
2023-04-20T21:32:29.278Z,93876.09
2023-04-20T21:34:55.872Z,93881.06
2023-04-20T21:37:22.559Z,93879.28
2023-04-20T21:39:52.425Z,93881.66
2023-04-20T21:42:19.014Z,93882.03
2023-04-20T21:44:45.782Z,93876.81
2023-04-20T21:47:12.391Z,93887.16
2023-04-20T21:49:39.226Z,93887.38
2023-04-20T21:52:05.874Z,93870.19
2023-04-20T21:54:34.575Z,93874.38
2023-04-20T21:57:01.772Z,93879.31
2023-04-20T21:59:28.364Z,93878.75
2023-04-20T22:01:55.081Z,93876.84
2023-04-20T22:04:21.857Z,93887.19
2023-04-20T22:06:48.922Z,93882.41
2023-04-20T22:09:17.383Z,93882.78
2023-04-20T22:11:44.141Z,93881.75
2023-04-20T22:14:11.099Z,93886.78
2023-04-20T22:16:37.647Z,93893.59
2023-04-20T22:19:04.644Z,93890.19
2023-04-20T22:21:32.192Z,93889.84
2023-04-20T22:23:59.064Z,93888.88
2023-04-20T22:26:25.806Z,93886.69
2023-04-20T22:28:52.391Z,93888.88
2023-04-20T22:31:18.997Z,93888.31
2023-04-20T22:33:45.782Z,93887.16
2023-04-20T22:36:12.620Z,93880.03
2023-04-20T22:38:39.360Z,93876.44
2023-04-20T22:41:06.061Z,93881.63
2023-04-20T22:43:32.661Z,93880.28
2023-04-20T22:45:59.284Z,93876.16
2023-04-20T22:48:25.948Z,93879.50
2023-04-20T22:50:52.622Z,93880.09
2023-04-20T22:53:19.229Z,93881.69
2023-04-20T22:55:46.095Z,93868.22
2023-04-20T22:58:12.684Z,93876.91
2023-04-20T23:00:39.569Z,93878.28
2023-04-20T23:03:06.359Z,93877.88
2023-04-20T23:05:33.736Z,93883.59
2023-04-20T23:08:00.740Z,93874.66
2023-04-20T23:10:29.614Z,93884.59
2023-04-20T23:12:56.328Z,93887.16
2023-04-20T23:15:23.080Z,93885.59
2023-04-20T23:17:50.933Z,93887.22
2023-04-20T23:20:17.947Z,93881.88
2023-04-20T23:22:44.718Z,93882.06
2023-04-20T23:25:11.504Z,93892.41
2023-04-20T23:27:38.218Z,93887.22
2023-04-20T23:30:06.740Z,93890.59
2023-04-20T23:32:33.548Z,93890.75
2023-04-20T23:35:00.386Z,93897.50
2023-04-20T23:37:27.062Z,93889.97
2023-04-20T23:39:53.769Z,93890.59
2023-04-20T23:42:20.511Z,93889.38
2023-04-20T23:44:47.252Z,93889.81
2023-04-20T23:47:15.540Z,93878.09
2023-04-20T23:49:42.275Z,93868.16
2023-04-20T23:52:09.070Z,93884.50
2023-04-20T23:54:35.740Z,93879.53
2023-04-20T23:57:02.795Z,93870.41
2023-04-20T23:59:29.577Z,93867.41
